Time;durP1;ratioP1;P1;durP2;ratioP2;P2;SDS_P1;SDS_P2;PMS_P1;PMS_P2;Temp;Humidity;BMP_temperature;BMP_pressure;BME280_temperature;BME280_humidity;BME280_pressure;Samples;Min_cycle;Max_cycle;Signal;HPM_P1;HPM_P2
2023/03/28 00:00:42;;;;;;;1.50;1.40;;;;;;;;;;5097573;28;20203;-61
2023/03/28 00:03:13;;;;;;;1.30;1.20;;;;;;;;;;5097046;28;20468;-61
2023/03/28 00:05:41;;;;;;;1.45;1.27;;;;;;;;;;5097203;28;20210;-61
2023/03/28 00:08:08;;;;;;;1.38;1.27;;;;;;;;;;5097467;28;20621;-61
2023/03/28 00:10:36;;;;;;;1.48;1.38;;;;;;;;;;5097256;28;20211;-61
2023/03/28 00:13:04;;;;;;;1.17;1.08;;;;;;;;;;5097022;28;20204;-61
2023/03/28 00:15:34;;;;;;;1.40;1.23;;;;;;;;;;5097232;28;20295;-61
2023/03/28 00:18:01;;;;;;;1.38;1.00;;;;;;;;;;5097304;28;20294;-61
2023/03/28 00:20:30;;;;;;;1.40;1.30;;;;;;;;;;5097024;28;20305;-61
2023/03/28 00:22:58;;;;;;;1.30;1.20;;;;;;;;;;5097218;28;20204;-61
2023/03/28 00:25:26;;;;;;;1.13;1.02;;;;;;;;;;5097350;28;20202;-61
2023/03/28 00:27:53;;;;;;;1.20;1.10;;;;;;;;;;5097219;28;20283;-61
2023/03/28 00:30:21;;;;;;;1.58;1.10;;;;;;;;;;5096507;28;20214;-61
2023/03/28 00:32:50;;;;;;;1.20;1.10;;;;;;;;;;5097069;28;20261;-61
2023/03/28 00:35:18;;;;;;;1.55;1.10;;;;;;;;;;5096868;28;20200;-61
2023/03/28 00:37:49;;;;;;;1.10;0.95;;;;;;;;;;5096697;28;20203;-61
2023/03/28 00:40:17;;;;;;;1.33;1.23;;;;;;;;;;5096944;28;20552;-61
2023/03/28 00:42:44;;;;;;;1.20;1.10;;;;;;;;;;5096923;28;20210;-61
2023/03/28 00:45:12;;;;;;;1.90;1.10;;;;;;;;;;5096711;28;20223;-61
2023/03/28 00:47:42;;;;;;;1.48;0.98;;;;;;;;;;5097011;28;20302;-61
2023/03/28 00:50:12;;;;;;;1.13;0.90;;;;;;;;;;5096942;28;20207;-61
2023/03/28 00:52:41;;;;;;;1.88;1.00;;;;;;;;;;5096796;28;20218;-61
2023/03/28 00:55:12;;;;;;;1.10;0.80;;;;;;;;;;5096534;28;20203;-61
2023/03/28 00:57:40;;;;;;;1.13;0.88;;;;;;;;;;5096498;28;20207;-61
2023/03/28 01:00:11;;;;;;;0.80;0.60;;;;;;;;;;5096676;28;20204;-61
2023/03/28 01:02:40;;;;;;;0.98;0.80;;;;;;;;;;5096027;28;20731;-61
2023/03/28 01:05:09;;;;;;;1.10;1.00;;;;;;;;;;5096360;28;20284;-61
2023/03/28 01:07:40;;;;;;;1.33;1.00;;;;;;;;;;5100082;28;20204;-62
2023/03/28 01:10:09;;;;;;;1.00;0.90;;;;;;;;;;5100608;28;20225;-61
2023/03/28 01:12:36;;;;;;;0.93;0.90;;;;;;;;;;5099822;28;20203;-61
2023/03/28 01:15:04;;;;;;;0.82;0.80;;;;;;;;;;5100032;28;20304;-61
2023/03/28 01:17:32;;;;;;;1.17;0.90;;;;;;;;;;5099872;28;20298;-61
2023/03/28 01:20:05;;;;;;;1.08;0.82;;;;;;;;;;5099926;28;20282;-61
2023/03/28 01:22:56;;;;;;;1.00;0.90;;;;;;;;;;5099976;28;20273;-61
2023/03/28 01:25:51;;;;;;;0.73;0.73;;;;;;;;;;5099841;28;20293;-61
2023/03/28 01:28:25;;;;;;;0.80;0.70;;;;;;;;;;5099661;28;20602;-61
2023/03/28 01:31:04;;;;;;;1.27;0.77;;;;;;;;;;5099554;28;20505;-61
2023/03/28 01:33:50;;;;;;;0.60;0.60;;;;;;;;;;5098333;28;20218;-61
2023/03/28 01:36:35;;;;;;;1.00;0.75;;;;;;;;;;5099232;28;20242;-61
2023/03/28 01:39:09;;;;;;;1.00;0.77;;;;;;;;;;5099445;28;20576;-61
2023/03/28 01:41:40;;;;;;;1.40;0.80;;;;;;;;;;5099192;28;20203;-61
2023/03/28 01:44:11;;;;;;;1.17;0.63;;;;;;;;;;5099327;28;20234;-61
2023/03/28 01:46:39;;;;;;;0.75;0.75;;;;;;;;;;5099128;28;20572;-61
2023/03/28 01:49:09;;;;;;;0.95;0.70;;;;;;;;;;5099434;28;20286;-61
2023/03/28 01:51:45;;;;;;;0.60;0.60;;;;;;;;;;5099310;28;20239;-61
2023/03/28 01:54:16;;;;;;;0.98;0.68;;;;;;;;;;5099243;28;20634;-61
2023/03/28 01:56:49;;;;;;;1.10;0.75;;;;;;;;;;5099239;28;20273;-61
2023/03/28 01:59:18;;;;;;;1.02;0.80;;;;;;;;;;5099197;28;20652;-61
2023/03/28 02:01:49;;;;;;;0.88;0.70;;;;;;;;;;5098961;28;20298;-61
2023/03/28 02:04:19;;;;;;;1.08;0.60;;;;;;;;;;5099531;28;20224;-61
2023/03/28 02:06:47;;;;;;;1.23;0.80;;;;;;;;;;5099465;28;20637;-61
2023/03/28 02:09:17;;;;;;;0.70;0.60;;;;;;;;;;5099238;28;20234;-61
2023/03/28 02:11:47;;;;;;;0.57;0.57;;;;;;;;;;5099622;28;20218;-61
2023/03/28 02:14:17;;;;;;;0.95;0.68;;;;;;;;;;5099489;28;20199;-61
2023/03/28 02:16:48;;;;;;;1.15;0.80;;;;;;;;;;5099360;28;20203;-61
2023/03/28 02:19:17;;;;;;;0.75;0.60;;;;;;;;;;5099481;28;20309;-61
2023/03/28 02:21:49;;;;;;;0.85;0.70;;;;;;;;;;5099124;28;20682;-61
2023/03/28 02:24:19;;;;;;;0.85;0.57;;;;;;;;;;5099469;28;20234;-61
2023/03/28 02:26:47;;;;;;;0.95;0.55;;;;;;;;;;5098752;28;20260;-61
2023/03/28 02:29:15;;;;;;;1.15;0.70;;;;;;;;;;5098734;28;20295;-61
2023/03/28 02:31:43;;;;;;;1.75;0.60;;;;;;;;;;5098925;28;20208;-61
2023/03/28 02:34:10;;;;;;;0.98;0.68;;;;;;;;;;5098136;28;20286;-61
2023/03/28 02:36:44;;;;;;;0.93;0.50;;;;;;;;;;5098081;28;20210;-61
2023/03/28 02:39:20;;;;;;;1.77;0.70;;;;;;;;;;5098417;28;20584;-61
2023/03/28 02:41:57;;;;;;;1.02;0.60;;;;;;;;;;5098679;28;20238;-61
2023/03/28 02:44:41;;;;;;;1.15;0.70;;;;;;;;;;5098598;28;20626;-61
2023/03/28 02:47:13;;;;;;;1.00;0.70;;;;;;;;;;5098498;28;20204;-61
2023/03/28 02:49:46;;;;;;;1.83;0.77;;;;;;;;;;5098699;28;20215;-61
2023/03/28 02:52:19;;;;;;;1.08;0.70;;;;;;;;;;5098260;28;20575;-61
2023/03/28 02:54:50;;;;;;;0.70;0.60;;;;;;;;;;5098011;28;20298;-61
2023/03/28 02:57:24;;;;;;;1.30;0.60;;;;;;;;;;5097996;28;20305;-61
2023/03/28 02:59:55;;;;;;;1.55;0.60;;;;;;;;;;5098313;28;20211;-61
2023/03/28 03:02:23;;;;;;;0.75;0.60;;;;;;;;;;5098469;28;20541;-61
2023/03/28 03:04:56;;;;;;;0.70;0.50;;;;;;;;;;5098205;28;20365;-61
2023/03/28 03:07:23;;;;;;;1.15;0.68;;;;;;;;;;5097606;28;20223;-61
2023/03/28 03:09:52;;;;;;;0.75;0.60;;;;;;;;;;5097976;28;20203;-61
2023/03/28 03:12:22;;;;;;;1.20;0.60;;;;;;;;;;5097688;28;20203;-61
2023/03/28 03:14:50;;;;;;;1.23;0.60;;;;;;;;;;5098229;28;20200;-61
2023/03/28 03:17:18;;;;;;;1.15;0.65;;;;;;;;;;5097941;28;20247;-61
2023/03/28 03:19:45;;;;;;;1.20;0.65;;;;;;;;;;5097902;28;20215;-61
2023/03/28 03:22:12;;;;;;;0.57;0.50;;;;;;;;;;5097500;28;20215;-61
2023/03/28 03:24:40;;;;;;;1.00;0.80;;;;;;;;;;5097899;28;20223;-61
2023/03/28 03:27:07;;;;;;;0.60;0.40;;;;;;;;;;5097924;28;20214;-61
2023/03/28 03:29:35;;;;;;;1.55;0.60;;;;;;;;;;5097146;28;20487;-61
2023/03/28 03:32:03;;;;;;;0.85;0.50;;;;;;;;;;5097773;28;20575;-61
2023/03/28 03:34:32;;;;;;;1.63;0.80;;;;;;;;;;5097735;28;20579;-61
2023/03/28 03:37:01;;;;;;;1.20;0.60;;;;;;;;;;5097581;28;20575;-61
2023/03/28 03:39:28;;;;;;;1.25;0.60;;;;;;;;;;5097866;28;20257;-61
2023/03/28 03:41:56;;;;;;;1.15;0.77;;;;;;;;;;5097384;28;20204;-61
2023/03/28 03:44:23;;;;;;;0.65;0.45;;;;;;;;;;5097178;28;20204;-61
2023/03/28 03:46:52;;;;;;;1.55;0.68;;;;;;;;;;5097306;28;20204;-61
2023/03/28 03:49:19;;;;;;;1.13;0.70;;;;;;;;;;5097812;28;20474;-61
2023/03/28 03:51:46;;;;;;;1.73;0.60;;;;;;;;;;5097356;28;20207;-61
2023/03/28 03:54:14;;;;;;;1.55;0.70;;;;;;;;;;5097062;28;20231;-61
2023/03/28 03:56:41;;;;;;;0.90;0.60;;;;;;;;;;5097063;28;20231;-61
2023/03/28 03:59:08;;;;;;;1.25;0.70;;;;;;;;;;5097195;28;20210;-61
2023/03/28 04:01:38;;;;;;;1.20;0.70;;;;;;;;;;5096772;28;20204;-61
2023/03/28 04:04:07;;;;;;;1.55;0.70;;;;;;;;;;5096926;28;20306;-61
2023/03/28 04:06:35;;;;;;;1.25;0.60;;;;;;;;;;5096981;28;20237;-61
2023/03/28 04:09:02;;;;;;;1.08;0.57;;;;;;;;;;5097066;28;20203;-61
2023/03/28 04:11:30;;;;;;;0.80;0.60;;;;;;;;;;5096407;28;20214;-61
2023/03/28 04:13:57;;;;;;;0.80;0.50;;;;;;;;;;5096557;28;20208;-61
2023/03/28 04:16:24;;;;;;;1.92;0.80;;;;;;;;;;5096531;28;20200;-61
2023/03/28 04:18:52;;;;;;;1.13;0.60;;;;;;;;;;5096405;28;20211;-61
2023/03/28 04:21:24;;;;;;;1.30;0.65;;;;;;;;;;5096634;28;20210;-61
2023/03/28 04:23:52;;;;;;;1.20;0.70;;;;;;;;;;5096264;28;20634;-62
2023/03/28 04:26:24;;;;;;;1.25;0.50;;;;;;;;;;5096572;28;20219;-61
2023/03/28 04:28:53;;;;;;;0.80;0.50;;;;;;;;;;5096496;28;20310;-61
2023/03/28 04:31:20;;;;;;;1.05;0.55;;;;;;;;;;5096339;28;20257;-61
2023/03/28 04:33:48;;;;;;;0.90;0.50;;;;;;;;;;5095952;28;20199;-61
2023/03/28 04:36:17;;;;;;;1.63;0.70;;;;;;;;;;5095740;28;20200;-61
2023/03/28 04:38:46;;;;;;;0.85;0.60;;;;;;;;;;5096251;28;20226;-61
2023/03/28 04:41:15;;;;;;;1.02;0.50;;;;;;;;;;5098213;28;20204;-61
2023/03/28 04:43:43;;;;;;;1.48;0.77;;;;;;;;;;5100062;28;20203;-61
2023/03/28 04:46:10;;;;;;;1.52;0.65;;;;;;;;;;5099145;28;20317;-61
2023/03/28 04:48:37;;;;;;;1.27;0.55;;;;;;;;;;5099084;28;20200;-61
2023/03/28 04:51:05;;;;;;;0.90;0.47;;;;;;;;;;5098324;28;20602;-61
2023/03/28 04:53:32;;;;;;;1.10;0.60;;;;;;;;;;5098967;28;20834;-61
2023/03/28 04:56:01;;;;;;;0.70;0.50;;;;;;;;;;5098176;28;20223;-61
2023/03/28 04:58:28;;;;;;;0.70;0.50;;;;;;;;;;5097113;28;20212;-61
2023/03/28 05:00:56;;;;;;;0.93;0.50;;;;;;;;;;5097811;28;20211;-61
2023/03/28 05:03:23;;;;;;;1.10;0.60;;;;;;;;;;5097691;28;20203;-61
2023/03/28 05:05:52;;;;;;;0.95;0.50;;;;;;;;;;5098320;28;20284;-61
2023/03/28 05:08:21;;;;;;;0.60;0.55;;;;;;;;;;5097082;28;20245;-61
2023/03/28 05:10:49;;;;;;;1.00;0.68;;;;;;;;;;5096404;28;20210;-61
2023/03/28 05:13:18;;;;;;;1.08;0.60;;;;;;;;;;5096552;28;20545;-61
2023/03/28 05:15:47;;;;;;;1.20;0.60;;;;;;;;;;5097409;28;20211;-61
2023/03/28 05:18:14;;;;;;;0.60;0.50;;;;;;;;;;5096903;28;20207;-61
2023/03/28 05:20:42;;;;;;;0.88;0.57;;;;;;;;;;5096963;28;20211;-61
2023/03/28 05:23:09;;;;;;;0.98;0.60;;;;;;;;;;5097059;28;20586;-61
2023/03/28 05:25:37;;;;;;;0.90;0.50;;;;;;;;;;5097008;28;20755;-61
2023/03/28 05:28:04;;;;;;;1.88;0.50;;;;;;;;;;5097454;28;20477;-60
2023/03/28 05:30:33;;;;;;;1.73;0.73;;;;;;;;;;5096934;28;20210;-60
2023/03/28 05:33:01;;;;;;;0.90;0.60;;;;;;;;;;5097087;28;20208;-60
2023/03/28 05:35:28;;;;;;;0.80;0.50;;;;;;;;;;5096798;28;20235;-60
2023/03/28 05:37:55;;;;;;;0.90;0.60;;;;;;;;;;5098489;28;20269;-60
2023/03/28 05:40:23;;;;;;;0.63;0.50;;;;;;;;;;5096871;28;20208;-60
2023/03/28 05:42:50;;;;;;;0.50;0.50;;;;;;;;;;5097251;28;20211;-60
2023/03/28 05:45:18;;;;;;;0.63;0.52;;;;;;;;;;5096966;28;20258;-60
2023/03/28 05:47:47;;;;;;;1.10;0.70;;;;;;;;;;5097248;28;20214;-60
2023/03/28 05:50:14;;;;;;;1.83;0.75;;;;;;;;;;5097223;28;20212;-61
2023/03/28 05:52:41;;;;;;;0.95;0.60;;;;;;;;;;5096698;28;20592;-61
2023/03/28 05:55:09;;;;;;;1.70;0.70;;;;;;;;;;5097143;28;20192;-61
2023/03/28 05:57:36;;;;;;;1.50;0.80;;;;;;;;;;5097192;28;20214;-61
2023/03/28 06:00:12;;;;;;;2.83;0.90;;;;;;;;;;5097669;28;20203;-61
2023/03/28 06:02:41;;;;;;;1.20;0.90;;;;;;;;;;5096833;28;20297;-61
2023/03/28 06:05:10;;;;;;;2.20;0.70;;;;;;;;;;5096912;28;20246;-61
2023/03/28 06:07:38;;;;;;;2.55;0.85;;;;;;;;;;5097113;28;20207;-61
2023/03/28 06:10:07;;;;;;;1.38;1.00;;;;;;;;;;5097303;28;20288;-61
2023/03/28 06:12:34;;;;;;;1.55;0.95;;;;;;;;;;5096881;28;20203;-61
2023/03/28 06:15:02;;;;;;;1.55;0.80;;;;;;;;;;5097243;28;20208;-61
2023/03/28 06:17:29;;;;;;;2.30;0.80;;;;;;;;;;5096488;28;20223;-61
2023/03/28 06:19:57;;;;;;;2.47;0.95;;;;;;;;;;5097276;28;20214;-61
2023/03/28 06:22:26;;;;;;;2.58;1.20;;;;;;;;;;5098037;28;20544;-61
2023/03/28 06:24:53;;;;;;;2.97;1.30;;;;;;;;;;5097194;28;20211;-61
2023/03/28 06:27:21;;;;;;;2.33;1.13;;;;;;;;;;5096934;28;20781;-61
2023/03/28 06:29:48;;;;;;;1.80;0.82;;;;;;;;;;5097220;28;20257;-61
2023/03/28 06:32:17;;;;;;;2.47;1.15;;;;;;;;;;5096271;28;20211;-61
2023/03/28 06:34:45;;;;;;;1.67;0.75;;;;;;;;;;5096187;28;20294;-61
2023/03/28 06:37:12;;;;;;;2.53;0.82;;;;;;;;;;5096259;28;20291;-61
2023/03/28 06:39:41;;;;;;;2.42;0.95;;;;;;;;;;5097071;28;20204;-61
2023/03/28 06:42:08;;;;;;;2.00;1.00;;;;;;;;;;5097955;28;20215;-61
2023/03/28 06:44:35;;;;;;;2.90;1.02;;;;;;;;;;5097061;28;20230;-61
2023/03/28 06:47:03;;;;;;;2.35;1.05;;;;;;;;;;5095991;28;20239;-61
2023/03/28 06:49:30;;;;;;;2.90;1.02;;;;;;;;;;5096644;28;20210;-61
2023/03/28 06:51:57;;;;;;;2.38;0.90;;;;;;;;;;5096875;28;20652;-61
2023/03/28 06:54:25;;;;;;;2.55;0.95;;;;;;;;;;5096133;28;20233;-61
2023/03/28 06:56:53;;;;;;;2.40;1.02;;;;;;;;;;5095899;28;20544;-61
2023/03/28 06:59:21;;;;;;;1.80;1.02;;;;;;;;;;5096787;28;20210;-61
2023/03/28 07:01:48;;;;;;;1.77;0.90;;;;;;;;;;5096188;28;20207;-61
2023/03/28 07:04:18;;;;;;;1.95;0.90;;;;;;;;;;5095075;28;20204;-61
2023/03/28 07:06:47;;;;;;;1.83;0.80;;;;;;;;;;5095506;28;20230;-61
2023/03/28 07:09:15;;;;;;;2.63;1.00;;;;;;;;;;5096424;28;20237;-61
2023/03/28 07:11:42;;;;;;;3.15;1.38;;;;;;;;;;5095292;28;20265;-61
2023/03/28 07:14:12;;;;;;;2.30;0.90;;;;;;;;;;5096292;28;20203;-61
2023/03/28 07:16:39;;;;;;;2.50;1.13;;;;;;;;;;5095318;28;20292;-61
2023/03/28 07:19:07;;;;;;;2.00;0.90;;;;;;;;;;5095483;28;20204;-61
2023/03/28 07:21:34;;;;;;;4.63;0.98;;;;;;;;;;5095909;28;20579;-61
2023/03/28 07:24:02;;;;;;;4.05;1.10;;;;;;;;;;5095111;28;20603;-61
2023/03/28 07:26:30;;;;;;;4.38;1.10;;;;;;;;;;5095220;28;20230;-61
2023/03/28 07:28:57;;;;;;;2.92;1.40;;;;;;;;;;5095912;28;20203;-61
2023/03/28 07:31:26;;;;;;;3.40;1.00;;;;;;;;;;5096722;28;20268;-61
2023/03/28 07:33:53;;;;;;;1.92;0.80;;;;;;;;;;5096469;28;20208;-61
2023/03/28 07:36:21;;;;;;;4.60;0.90;;;;;;;;;;5095685;28;20195;-61
2023/03/28 07:38:48;;;;;;;1.70;0.93;;;;;;;;;;5095146;28;20203;-61
2023/03/28 07:41:16;;;;;;;3.83;1.10;;;;;;;;;;5095881;28;20260;-61
2023/03/28 07:43:43;;;;;;;2.15;1.02;;;;;;;;;;5095450;28;20641;-61
2023/03/28 07:46:12;;;;;;;4.38;0.90;;;;;;;;;;5095708;28;20219;-60
2023/03/28 07:48:41;;;;;;;4.60;0.90;;;;;;;;;;5094879;28;20203;-61
2023/03/28 07:51:11;;;;;;;3.08;1.13;;;;;;;;;;5094446;28;20203;-60
2023/03/28 07:53:38;;;;;;;3.20;1.10;;;;;;;;;;5094764;28;20200;-60
2023/03/28 07:56:09;;;;;;;3.85;1.23;;;;;;;;;;5095493;28;20235;-60
2023/03/28 07:58:36;;;;;;;2.65;1.10;;;;;;;;;;5094961;28;20203;-60
2023/03/28 08:01:07;;;;;;;4.90;1.13;;;;;;;;;;5094700;28;20583;-61
2023/03/28 08:03:34;;;;;;;2.70;0.98;;;;;;;;;;5094892;28;20598;-61
2023/03/28 08:06:04;;;;;;;2.50;0.90;;;;;;;;;;5094466;28;20228;-61
2023/03/28 08:08:32;;;;;;;2.60;0.85;;;;;;;;;;5095132;28;20223;-62
2023/03/28 08:10:59;;;;;;;3.70;1.00;;;;;;;;;;5094821;28;20203;-62
2023/03/28 08:13:27;;;;;;;3.83;1.33;;;;;;;;;;5094967;28;20195;-61
2023/03/28 08:15:55;;;;;;;2.40;0.90;;;;;;;;;;5095254;28;20211;-61
2023/03/28 08:18:24;;;;;;;3.45;1.08;;;;;;;;;;5095903;28;20203;-61
2023/03/28 08:20:52;;;;;;;3.50;1.02;;;;;;;;;;5095421;28;20276;-61
2023/03/28 08:23:20;;;;;;;5.80;1.27;;;;;;;;;;5094645;28;20203;-61
2023/03/28 08:25:48;;;;;;;3.33;0.93;;;;;;;;;;5094521;28;20775;-61
2023/03/28 08:28:15;;;;;;;2.95;1.00;;;;;;;;;;5094708;28;20614;-60
2023/03/28 08:30:42;;;;;;;4.88;1.02;;;;;;;;;;5095093;28;20652;-61
2023/03/28 08:33:10;;;;;;;3.10;0.90;;;;;;;;;;5093724;28;20290;-61
2023/03/28 08:35:38;;;;;;;2.55;1.10;;;;;;;;;;5094246;28;20207;-61
2023/03/28 08:38:06;;;;;;;3.72;1.13;;;;;;;;;;5094874;28;20203;-60
2023/03/28 08:40:36;;;;;;;4.80;0.90;;;;;;;;;;5094269;28;20290;-61
2023/03/28 08:43:10;;;;;;;4.63;0.95;;;;;;;;;;5093981;28;20210;-61
2023/03/28 08:45:42;;;;;;;3.10;0.88;;;;;;;;;;5094834;28;20204;-61
2023/03/28 08:48:14;;;;;;;2.38;1.00;;;;;;;;;;5094275;28;20207;-61
2023/03/28 08:50:44;;;;;;;1.55;0.90;;;;;;;;;;5092946;28;20211;-61
2023/03/28 08:53:17;;;;;;;2.22;0.82;;;;;;;;;;5094163;28;20295;-61
2023/03/28 08:55:48;;;;;;;2.10;0.80;;;;;;;;;;5094246;28;20540;-60
2023/03/28 08:58:20;;;;;;;2.50;1.05;;;;;;;;;;5094615;28;20211;-61
2023/03/28 09:00:48;;;;;;;3.67;1.10;;;;;;;;;;5094330;28;20207;-61
2023/03/28 09:03:16;;;;;;;2.97;1.00;;;;;;;;;;5094121;28;20203;-61
2023/03/28 09:05:46;;;;;;;2.33;0.90;;;;;;;;;;5094897;28;20207;-61
2023/03/28 09:08:29;;;;;;;1.95;0.73;;;;;;;;;;5094175;28;20583;-60
2023/03/28 09:11:00;;;;;;;2.28;1.02;;;;;;;;;;5091782;28;20242;-60
2023/03/28 09:13:34;;;;;;;3.53;0.90;;;;;;;;;;5094890;28;20238;-61
2023/03/28 09:16:08;;;;;;;3.40;0.93;;;;;;;;;;5094803;28;20215;-61
2023/03/28 09:18:44;;;;;;;2.20;0.93;;;;;;;;;;5094289;28;20204;-60
2023/03/28 09:21:15;;;;;;;2.47;1.08;;;;;;;;;;5094090;28;20229;-60
2023/03/28 09:24:06;;;;;;;2.00;0.90;;;;;;;;;;5094525;28;20200;-60
2023/03/28 09:26:36;;;;;;;1.50;0.73;;;;;;;;;;5094560;28;20607;-61
2023/03/28 09:29:03;;;;;;;2.35;0.80;;;;;;;;;;5097549;28;20203;-61
2023/03/28 09:31:33;;;;;;;1.38;0.70;;;;;;;;;;5097998;28;20204;-61
2023/03/28 09:34:01;;;;;;;1.52;0.75;;;;;;;;;;5097370;28;20211;-61
2023/03/28 09:36:30;;;;;;;3.30;0.90;;;;;;;;;;5097356;28;20207;-61
2023/03/28 09:38:59;;;;;;;1.30;0.85;;;;;;;;;;5097446;28;20204;-61
2023/03/28 09:41:28;;;;;;;1.80;0.70;;;;;;;;;;5097033;28;20204;-61
2023/03/28 09:43:57;;;;;;;1.48;0.70;;;;;;;;;;5096752;28;20211;-61
2023/03/28 09:46:28;;;;;;;2.13;0.60;;;;;;;;;;5096856;28;20646;-60
2023/03/28 09:48:56;;;;;;;1.35;0.70;;;;;;;;;;5097035;28;20261;-61
2023/03/28 09:51:23;;;;;;;1.67;0.70;;;;;;;;;;5096832;28;20204;-61
2023/03/28 09:53:51;;;;;;;1.27;0.82;;;;;;;;;;5096334;28;20204;-61
2023/03/28 09:56:24;;;;;;;1.90;0.80;;;;;;;;;;5096477;28;20236;-60
2023/03/28 09:58:53;;;;;;;3.00;0.73;;;;;;;;;;5096564;28;20237;-60
2023/03/28 10:01:26;;;;;;;2.08;0.90;;;;;;;;;;5096528;28;20204;-60
2023/03/28 10:03:54;;;;;;;1.73;0.77;;;;;;;;;;5096345;28;20235;-60
2023/03/28 10:06:25;;;;;;;1.85;0.85;;;;;;;;;;5095790;28;20234;-60
2023/03/28 10:08:52;;;;;;;1.63;0.50;;;;;;;;;;5096468;28;20592;-60
2023/03/28 10:11:21;;;;;;;2.00;0.73;;;;;;;;;;5095856;28;20207;-60
2023/03/28 10:13:50;;;;;;;2.60;0.90;;;;;;;;;;5096243;28;20675;-60
2023/03/28 10:16:21;;;;;;;0.90;0.80;;;;;;;;;;5096831;28;20266;-60
2023/03/28 10:18:50;;;;;;;2.20;0.73;;;;;;;;;;5095940;28;20200;-60
2023/03/28 10:21:18;;;;;;;0.93;0.60;;;;;;;;;;5095559;28;20520;-60
2023/03/28 10:23:48;;;;;;;1.00;0.45;;;;;;;;;;5096146;28;20301;-60
2023/03/28 10:26:20;;;;;;;1.40;0.65;;;;;;;;;;5096523;28;20648;-60
2023/03/28 10:28:51;;;;;;;1.92;0.95;;;;;;;;;;5096838;28;20237;-60
2023/03/28 10:31:27;;;;;;;1.40;0.60;;;;;;;;;;5096237;28;20243;-60
2023/03/28 10:33:57;;;;;;;2.08;0.80;;;;;;;;;;5096282;28;20241;-60
2023/03/28 10:36:27;;;;;;;2.05;0.70;;;;;;;;;;5095751;28;20208;-60
2023/03/28 10:38:55;;;;;;;1.73;0.68;;;;;;;;;;5094788;28;20591;-60
2023/03/28 10:41:23;;;;;;;1.25;0.70;;;;;;;;;;5095974;28;20567;-60
2023/03/28 10:43:51;;;;;;;1.95;0.80;;;;;;;;;;5095587;28;20218;-60
2023/03/28 10:46:20;;;;;;;0.73;0.47;;;;;;;;;;5095834;28;20203;-60
2023/03/28 10:48:49;;;;;;;1.45;0.60;;;;;;;;;;5095640;28;20203;-60
2023/03/28 10:51:20;;;;;;;1.35;0.60;;;;;;;;;;5094897;28;20211;-60
2023/03/28 10:54:05;;;;;;;1.95;0.50;;;;;;;;;;5094914;28;20222;-60
2023/03/28 10:56:37;;;;;;;0.93;0.50;;;;;;;;;;5094805;28;20326;-60
2023/03/28 10:59:15;;;;;;;1.83;0.60;;;;;;;;;;5094889;28;20265;-60
2023/03/28 11:01:50;;;;;;;1.20;0.50;;;;;;;;;;5094035;28;20211;-60
2023/03/28 11:04:24;;;;;;;0.70;0.50;;;;;;;;;;5093840;28;20207;-60
2023/03/28 11:07:00;;;;;;;1.00;0.60;;;;;;;;;;5094638;28;20230;-60
2023/03/28 11:09:32;;;;;;;1.48;0.50;;;;;;;;;;5094358;28;20204;-60
2023/03/28 11:12:05;;;;;;;1.95;0.63;;;;;;;;;;5094549;28;20211;-60
2023/03/28 11:14:38;;;;;;;1.10;0.63;;;;;;;;;;5094990;28;20461;-60
2023/03/28 11:17:11;;;;;;;1.20;0.60;;;;;;;;;;5095010;28;20677;-61
2023/03/28 11:19:47;;;;;;;0.75;0.50;;;;;;;;;;5094094;28;20234;-60
2023/03/28 11:22:22;;;;;;;1.23;0.70;;;;;;;;;;5095275;28;20211;-60
2023/03/28 11:24:55;;;;;;;1.40;0.60;;;;;;;;;;5095026;28;20203;-60
2023/03/28 11:27:26;;;;;;;1.13;0.60;;;;;;;;;;5094218;28;20223;-60
2023/03/28 11:29:55;;;;;;;0.70;0.50;;;;;;;;;;5095117;28;20203;-60
2023/03/28 11:32:25;;;;;;;1.45;0.65;;;;;;;;;;5094263;28;20231;-60
2023/03/28 11:34:59;;;;;;;0.80;0.60;;;;;;;;;;5094517;28;20225;-60
2023/03/28 11:37:31;;;;;;;1.00;0.70;;;;;;;;;;5094472;28;20207;-60
2023/03/28 11:40:04;;;;;;;1.40;0.70;;;;;;;;;;5095175;28;20211;-60
2023/03/28 11:42:32;;;;;;;0.80;0.60;;;;;;;;;;5095042;28;20302;-60
2023/03/28 11:45:03;;;;;;;1.55;0.50;;;;;;;;;;5094094;28;20234;-60
2023/03/28 11:47:33;;;;;;;0.90;0.40;;;;;;;;;;5094362;28;20226;-60
2023/03/28 11:50:03;;;;;;;0.90;0.60;;;;;;;;;;5094143;28;20207;-60
2023/03/28 11:52:34;;;;;;;1.38;0.65;;;;;;;;;;5093917;28;20583;-60
2023/03/28 11:55:04;;;;;;;0.90;0.60;;;;;;;;;;5092505;28;20235;-60
2023/03/28 11:57:35;;;;;;;1.70;0.70;;;;;;;;;;5093683;28;20199;-60
2023/03/28 12:00:04;;;;;;;0.85;0.63;;;;;;;;;;5093767;28;20235;-60
2023/03/28 12:02:41;;;;;;;1.02;0.50;;;;;;;;;;5092800;28;20306;-60
2023/03/28 12:05:12;;;;;;;0.70;0.43;;;;;;;;;;5093361;28;20226;-60
2023/03/28 12:07:43;;;;;;;0.50;0.40;;;;;;;;;;5093994;28;20234;-60
2023/03/28 12:10:18;;;;;;;0.80;0.50;;;;;;;;;;5094035;28;20208;-60
2023/03/28 12:12:50;;;;;;;0.70;0.50;;;;;;;;;;5093694;28;20601;-60
2023/03/28 12:15:19;;;;;;;0.80;0.40;;;;;;;;;;5093587;28;20211;-60
2023/03/28 12:17:48;;;;;;;0.98;0.50;;;;;;;;;;5094423;28;20207;-60
2023/03/28 12:20:28;;;;;;;0.98;0.50;;;;;;;;;;5094003;28;20211;-60
2023/03/28 12:23:00;;;;;;;1.02;0.60;;;;;;;;;;5093461;28;20295;-60
2023/03/28 12:25:32;;;;;;;1.92;0.50;;;;;;;;;;5092801;28;20294;-60
2023/03/28 12:28:02;;;;;;;0.93;0.60;;;;;;;;;;5091992;28;20223;-60
2023/03/28 12:30:34;;;;;;;0.93;0.50;;;;;;;;;;5093415;28;20199;-60
2023/03/28 12:33:06;;;;;;;0.47;0.35;;;;;;;;;;5093044;28;20211;-60
2023/03/28 12:35:36;;;;;;;0.55;0.50;;;;;;;;;;5093710;28;20239;-60
2023/03/28 12:38:12;;;;;;;1.17;0.50;;;;;;;;;;5093056;28;20286;-60
2023/03/28 12:40:50;;;;;;;0.70;0.40;;;;;;;;;;5093323;28;20207;-60
2023/03/28 12:43:20;;;;;;;0.60;0.50;;;;;;;;;;5093576;28;20296;-60
2023/03/28 12:45:51;;;;;;;0.68;0.30;;;;;;;;;;5093254;28;20210;-60
2023/03/28 12:48:24;;;;;;;0.77;0.40;;;;;;;;;;5093129;28;20333;-60
2023/03/28 12:50:53;;;;;;;0.52;0.40;;;;;;;;;;5093094;28;20195;-60
2023/03/28 12:53:23;;;;;;;0.40;0.40;;;;;;;;;;5092221;28;20214;-60
2023/03/28 12:55:51;;;;;;;0.70;0.40;;;;;;;;;;5092862;28;20240;-60
2023/03/28 12:58:23;;;;;;;0.95;0.50;;;;;;;;;;5093148;28;20298;-60
2023/03/28 13:00:55;;;;;;;0.57;0.40;;;;;;;;;;5092515;28;20212;-60
2023/03/28 13:03:29;;;;;;;1.00;0.50;;;;;;;;;;5096156;28;20226;-60
2023/03/28 13:05:58;;;;;;;0.50;0.40;;;;;;;;;;5097709;28;20288;-60
2023/03/28 13:08:35;;;;;;;0.50;0.50;;;;;;;;;;5096073;28;20235;-60
2023/03/28 13:11:06;;;;;;;0.77;0.50;;;;;;;;;;5096799;28;20214;-60
2023/03/28 13:13:39;;;;;;;0.70;0.52;;;;;;;;;;5096418;28;20203;-60
2023/03/28 13:16:07;;;;;;;0.50;0.50;;;;;;;;;;5097600;28;20211;-60
2023/03/28 13:18:35;;;;;;;0.63;0.40;;;;;;;;;;5096182;28;20207;-60
2023/03/28 13:21:05;;;;;;;0.50;0.40;;;;;;;;;;5096513;28;20207;-60
2023/03/28 13:23:36;;;;;;;0.50;0.35;;;;;;;;;;5097209;28;20200;-60
2023/03/28 13:26:05;;;;;;;0.40;0.32;;;;;;;;;;5096472;28;20268;-60
2023/03/28 13:28:39;;;;;;;0.80;0.50;;;;;;;;;;5096343;28;20219;-60
2023/03/28 13:31:07;;;;;;;0.40;0.40;;;;;;;;;;5095756;28;20210;-60
2023/03/28 13:33:37;;;;;;;0.68;0.30;;;;;;;;;;5095932;28;20203;-60
2023/03/28 13:36:18;;;;;;;0.73;0.50;;;;;;;;;;5096049;28;20302;-60
2023/03/28 13:38:49;;;;;;;0.68;0.30;;;;;;;;;;5096366;28;20682;-60
2023/03/28 13:41:50;;;;;;;0.50;0.30;;;;;;;;;;5096416;28;20206;-60
2023/03/28 13:44:19;;;;;;;0.47;0.38;;;;;;;;;;5015418;28;20241;-60
2023/03/28 13:46:48;;;;;;;0.50;0.40;;;;;;;;;;5014607;28;20230;-60
2023/03/28 13:49:18;;;;;;;1.52;0.50;;;;;;;;;;5053876;28;20292;-60
2023/03/28 13:51:47;;;;;;;0.75;0.40;;;;;;;;;;5096420;28;20719;-60
2023/03/28 13:54:16;;;;;;;1.23;0.43;;;;;;;;;;5095547;28;20199;-60
2023/03/28 13:56:45;;;;;;;0.50;0.40;;;;;;;;;;5095542;28;20243;-60
2023/03/28 13:59:14;;;;;;;0.60;0.30;;;;;;;;;;5096291;28;20235;-60
2023/03/28 14:01:46;;;;;;;0.40;0.30;;;;;;;;;;5096164;28;20227;-60
2023/03/28 14:04:18;;;;;;;0.60;0.50;;;;;;;;;;5095281;28;20210;-60
2023/03/28 14:06:45;;;;;;;0.52;0.40;;;;;;;;;;5096287;28;20653;-60
2023/03/28 14:09:16;;;;;;;0.47;0.40;;;;;;;;;;5096907;28;20571;-61
2023/03/28 14:11:44;;;;;;;0.85;0.40;;;;;;;;;;5096202;28;20211;-60
2023/03/28 14:14:13;;;;;;;0.50;0.30;;;;;;;;;;5095099;28;20514;-60
2023/03/28 14:16:42;;;;;;;0.90;0.40;;;;;;;;;;5096426;28;20223;-60
2023/03/28 14:19:10;;;;;;;0.57;0.57;;;;;;;;;;5095462;28;20204;-60
2023/03/28 14:21:37;;;;;;;0.50;0.47;;;;;;;;;;5095377;28;20211;-60
2023/03/28 14:24:06;;;;;;;0.55;0.40;;;;;;;;;;5096214;28;20203;-60
2023/03/28 14:26:36;;;;;;;0.40;0.40;;;;;;;;;;5095439;28;20260;-60
2023/03/28 14:29:05;;;;;;;0.40;0.40;;;;;;;;;;5095054;28;20280;-60
2023/03/28 14:31:34;;;;;;;1.02;0.50;;;;;;;;;;5095642;28;20207;-60
2023/03/28 14:34:03;;;;;;;0.50;0.30;;;;;;;;;;5094717;28;20278;-60
2023/03/28 14:36:36;;;;;;;0.65;0.40;;;;;;;;;;5095524;28;20575;-60
2023/03/28 14:39:09;;;;;;;0.55;0.30;;;;;;;;;;5094916;28;20207;-60
2023/03/28 14:41:44;;;;;;;0.40;0.30;;;;;;;;;;5094834;28;20204;-60
2023/03/28 14:44:13;;;;;;;0.30;0.30;;;;;;;;;;5094991;28;20579;-60
2023/03/28 14:46:41;;;;;;;0.30;0.30;;;;;;;;;;5095279;28;20200;-60
2023/03/28 14:49:09;;;;;;;0.55;0.50;;;;;;;;;;5094380;28;20762;-60
2023/03/28 14:51:43;;;;;;;0.40;0.30;;;;;;;;;;5095658;28;20203;-60
2023/03/28 14:54:15;;;;;;;0.68;0.60;;;;;;;;;;5094137;28;20208;-60
2023/03/28 14:56:44;;;;;;;0.40;0.40;;;;;;;;;;5094566;28;20598;-60
2023/03/28 14:59:14;;;;;;;0.65;0.40;;;;;;;;;;5094870;28;20203;-60